Terminal Aerodrome Forecast
Issued by NWS

Home | Current Version | Previous Version | Text Only | Print | Product List | Glossary On
Versions: 1 2 3 4 5 6 7 8 9 10 11 12 13 14 15 16 17 18 19 20 21 22 23 24 25 26 27 28 29 30 31 32
000
FTUS43 KMKX 191730
TAFENW
TAF
KENW 191730Z 1918/2018 VRB03KT P6SM SKC
     FM192000 11005KT P6SM FEW250
     FM200800 11005KT 3SM BR SCT120
     FM200900 10005KT 1SM BR BKN060
     FM201000 11005KT 1/2SM FG BKN020
     FM201500 15008KT 1SM BR BKN008=

USA.gov is the U.S. government's official web portal to all federal, state and local government web resources and services.